sensor_id;sensor_type;location;lat;lon;timestamp;P1;durP1;ratioP1;P2;durP2;ratioP2
21170;SDS011;10743;52.160;20.910;2022-08-25T00:01:58;6.97;;;2.67;;
21170;SDS011;10743;52.160;20.910;2022-08-25T00:04:30;8.32;;;2.20;;
21170;SDS011;10743;52.160;20.910;2022-08-25T00:06:59;10.23;;;2.47;;
21170;SDS011;10743;52.160;20.910;2022-08-25T00:09:29;10.55;;;2.33;;
21170;SDS011;10743;52.160;20.910;2022-08-25T00:11:58;9.93;;;2.53;;
21170;SDS011;10743;52.160;20.910;2022-08-25T00:14:27;11.00;;;2.15;;
21170;SDS011;10743;52.160;20.910;2022-08-25T00:17:00;10.77;;;2.55;;
21170;SDS011;10743;52.160;20.910;2022-08-25T00:19:28;10.30;;;2.42;;
21170;SDS011;10743;52.160;20.910;2022-08-25T00:21:59;8.90;;;2.17;;
21170;SDS011;10743;52.160;20.910;2022-08-25T00:24:27;15.23;;;2.85;;
21170;SDS011;10743;52.160;20.910;2022-08-25T00:26:55;7.50;;;2.05;;
21170;SDS011;10743;52.160;20.910;2022-08-25T00:29:25;10.38;;;2.78;;
21170;SDS011;10743;52.160;20.910;2022-08-25T00:31:54;7.47;;;2.50;;
21170;SDS011;10743;52.160;20.910;2022-08-25T00:34:23;8.20;;;2.75;;
21170;SDS011;10743;52.160;20.910;2022-08-25T00:36:55;7.35;;;2.47;;
21170;SDS011;10743;52.160;20.910;2022-08-25T00:39:22;9.27;;;2.53;;
21170;SDS011;10743;52.160;20.910;2022-08-25T00:41:51;7.97;;;2.55;;
21170;SDS011;10743;52.160;20.910;2022-08-25T00:44:22;10.10;;;3.03;;
21170;SDS011;10743;52.160;20.910;2022-08-25T00:46:54;7.88;;;2.28;;
21170;SDS011;10743;52.160;20.910;2022-08-25T00:49:44;9.48;;;2.72;;
21170;SDS011;10743;52.160;20.910;2022-08-25T00:52:23;9.32;;;2.60;;
21170;SDS011;10743;52.160;20.910;2022-08-25T00:55:02;11.50;;;2.50;;
21170;SDS011;10743;52.160;20.910;2022-08-25T00:57:37;6.35;;;2.42;;
21170;SDS011;10743;52.160;20.910;2022-08-25T01:00:38;13.40;;;2.67;;
21170;SDS011;10743;52.160;20.910;2022-08-25T01:03:09;7.07;;;2.80;;
21170;SDS011;10743;52.160;20.910;2022-08-25T01:05:36;12.60;;;3.45;;
21170;SDS011;10743;52.160;20.910;2022-08-25T01:08:06;8.32;;;2.70;;
21170;SDS011;10743;52.160;20.910;2022-08-25T01:10:35;12.43;;;2.85;;
21170;SDS011;10743;52.160;20.910;2022-08-25T01:13:10;8.50;;;2.88;;
21170;SDS011;10743;52.160;20.910;2022-08-25T01:15:44;8.50;;;3.08;;
21170;SDS011;10743;52.160;20.910;2022-08-25T01:18:12;14.00;;;3.05;;
21170;SDS011;10743;52.160;20.910;2022-08-25T01:20:40;9.55;;;3.10;;
21170;SDS011;10743;52.160;20.910;2022-08-25T01:23:07;7.82;;;2.95;;
21170;SDS011;10743;52.160;20.910;2022-08-25T01:25:44;6.00;;;3.00;;
21170;SDS011;10743;52.160;20.910;2022-08-25T01:28:15;13.18;;;3.13;;
21170;SDS011;10743;52.160;20.910;2022-08-25T01:30:43;10.73;;;3.13;;
21170;SDS011;10743;52.160;20.910;2022-08-25T01:33:11;9.02;;;3.60;;
21170;SDS011;10743;52.160;20.910;2022-08-25T01:35:39;13.98;;;3.55;;
21170;SDS011;10743;52.160;20.910;2022-08-25T01:38:06;12.48;;;3.50;;
21170;SDS011;10743;52.160;20.910;2022-08-25T01:40:34;11.13;;;2.92;;
21170;SDS011;10743;52.160;20.910;2022-08-25T01:45:42;15.98;;;3.47;;
21170;SDS011;10743;52.160;20.910;2022-08-25T01:48:13;10.93;;;2.95;;
21170;SDS011;10743;52.160;20.910;2022-08-25T01:50:41;8.18;;;3.05;;
21170;SDS011;10743;52.160;20.910;2022-08-25T01:53:16;10.60;;;3.00;;
21170;SDS011;10743;52.160;20.910;2022-08-25T01:55:58;10.80;;;3.70;;
21170;SDS011;10743;52.160;20.910;2022-08-25T01:58:35;13.23;;;3.20;;
21170;SDS011;10743;52.160;20.910;2022-08-25T02:01:07;12.23;;;3.92;;
21170;SDS011;10743;52.160;20.910;2022-08-25T02:03:39;16.17;;;3.60;;
21170;SDS011;10743;52.160;20.910;2022-08-25T02:06:12;13.20;;;3.38;;
21170;SDS011;10743;52.160;20.910;2022-08-25T02:08:43;12.68;;;3.50;;
21170;SDS011;10743;52.160;20.910;2022-08-25T02:11:11;12.48;;;3.80;;
21170;SDS011;10743;52.160;20.910;2022-08-25T02:13:40;11.43;;;3.60;;
21170;SDS011;10743;52.160;20.910;2022-08-25T02:16:08;11.27;;;3.50;;
21170;SDS011;10743;52.160;20.910;2022-08-25T02:18:41;10.90;;;3.55;;
21170;SDS011;10743;52.160;20.910;2022-08-25T02:21:09;9.40;;;3.65;;
21170;SDS011;10743;52.160;20.910;2022-08-25T02:23:36;10.73;;;3.83;;
21170;SDS011;10743;52.160;20.910;2022-08-25T02:26:03;11.07;;;3.30;;
21170;SDS011;10743;52.160;20.910;2022-08-25T02:28:30;10.75;;;3.88;;
21170;SDS011;10743;52.160;20.910;2022-08-25T02:30:57;19.45;;;3.78;;
21170;SDS011;10743;52.160;20.910;2022-08-25T02:33:27;18.65;;;4.47;;
21170;SDS011;10743;52.160;20.910;2022-08-25T02:35:58;11.23;;;3.72;;
21170;SDS011;10743;52.160;20.910;2022-08-25T02:38:26;8.82;;;3.70;;
21170;SDS011;10743;52.160;20.910;2022-08-25T02:40:55;12.38;;;4.28;;
21170;SDS011;10743;52.160;20.910;2022-08-25T02:43:24;10.10;;;3.70;;
21170;SDS011;10743;52.160;20.910;2022-08-25T02:45:53;13.38;;;3.85;;
21170;SDS011;10743;52.160;20.910;2022-08-25T02:48:24;11.15;;;3.90;;
21170;SDS011;10743;52.160;20.910;2022-08-25T02:50:51;11.95;;;3.78;;
21170;SDS011;10743;52.160;20.910;2022-08-25T02:53:19;10.80;;;3.53;;
21170;SDS011;10743;52.160;20.910;2022-08-25T02:55:46;12.77;;;4.07;;
21170;SDS011;10743;52.160;20.910;2022-08-25T02:58:13;12.45;;;4.10;;
21170;SDS011;10743;52.160;20.910;2022-08-25T03:00:40;13.57;;;3.85;;
21170;SDS011;10743;52.160;20.910;2022-08-25T03:03:08;14.95;;;4.00;;
21170;SDS011;10743;52.160;20.910;2022-08-25T03:05:35;12.10;;;4.05;;
21170;SDS011;10743;52.160;20.910;2022-08-25T03:08:02;9.68;;;3.85;;
21170;SDS011;10743;52.160;20.910;2022-08-25T03:10:31;15.45;;;4.47;;
21170;SDS011;10743;52.160;20.910;2022-08-25T03:12:59;12.60;;;3.67;;
21170;SDS011;10743;52.160;20.910;2022-08-25T03:15:26;12.05;;;4.20;;
21170;SDS011;10743;52.160;20.910;2022-08-25T03:17:55;11.05;;;4.07;;
21170;SDS011;10743;52.160;20.910;2022-08-25T03:20:25;14.05;;;4.28;;
21170;SDS011;10743;52.160;20.910;2022-08-25T03:22:53;9.23;;;4.40;;
21170;SDS011;10743;52.160;20.910;2022-08-25T03:25:20;11.57;;;4.05;;
21170;SDS011;10743;52.160;20.910;2022-08-25T03:28:06;16.13;;;4.18;;
21170;SDS011;10743;52.160;20.910;2022-08-25T03:30:34;12.25;;;4.43;;
21170;SDS011;10743;52.160;20.910;2022-08-25T03:33:01;12.93;;;4.35;;
21170;SDS011;10743;52.160;20.910;2022-08-25T03:35:28;14.98;;;4.88;;
21170;SDS011;10743;52.160;20.910;2022-08-25T03:37:56;16.95;;;4.32;;
21170;SDS011;10743;52.160;20.910;2022-08-25T03:40:25;12.85;;;4.32;;
21170;SDS011;10743;52.160;20.910;2022-08-25T03:42:52;14.45;;;4.95;;
21170;SDS011;10743;52.160;20.910;2022-08-25T03:45:22;12.15;;;4.82;;
21170;SDS011;10743;52.160;20.910;2022-08-25T03:47:50;19.83;;;4.93;;
21170;SDS011;10743;52.160;20.910;2022-08-25T03:50:19;15.57;;;5.35;;
21170;SDS011;10743;52.160;20.910;2022-08-25T03:52:52;20.90;;;5.35;;
21170;SDS011;10743;52.160;20.910;2022-08-25T03:55:22;17.05;;;5.22;;
21170;SDS011;10743;52.160;20.910;2022-08-25T03:57:51;21.23;;;5.00;;
21170;SDS011;10743;52.160;20.910;2022-08-25T04:00:20;17.05;;;5.32;;
21170;SDS011;10743;52.160;20.910;2022-08-25T04:02:48;17.23;;;5.57;;
21170;SDS011;10743;52.160;20.910;2022-08-25T04:05:15;17.98;;;5.13;;
21170;SDS011;10743;52.160;20.910;2022-08-25T04:07:42;12.32;;;4.88;;
21170;SDS011;10743;52.160;20.910;2022-08-25T04:10:09;20.88;;;5.47;;
21170;SDS011;10743;52.160;20.910;2022-08-25T04:12:37;13.80;;;4.90;;
21170;SDS011;10743;52.160;20.910;2022-08-25T04:15:05;23.55;;;5.53;;
21170;SDS011;10743;52.160;20.910;2022-08-25T04:17:37;18.42;;;5.22;;
21170;SDS011;10743;52.160;20.910;2022-08-25T04:20:06;22.08;;;5.15;;
21170;SDS011;10743;52.160;20.910;2022-08-25T04:22:39;20.73;;;5.20;;
21170;SDS011;10743;52.160;20.910;2022-08-25T04:25:10;24.67;;;5.93;;
21170;SDS011;10743;52.160;20.910;2022-08-25T04:27:37;15.82;;;5.57;;
21170;SDS011;10743;52.160;20.910;2022-08-25T04:30:05;26.77;;;5.82;;
21170;SDS011;10743;52.160;20.910;2022-08-25T04:32:34;29.15;;;6.00;;
21170;SDS011;10743;52.160;20.910;2022-08-25T04:35:02;22.35;;;5.78;;
21170;SDS011;10743;52.160;20.910;2022-08-25T04:37:30;22.48;;;6.38;;
21170;SDS011;10743;52.160;20.910;2022-08-25T04:39:58;24.25;;;6.00;;
21170;SDS011;10743;52.160;20.910;2022-08-25T04:42:25;23.52;;;5.93;;
21170;SDS011;10743;52.160;20.910;2022-08-25T04:44:52;20.73;;;5.53;;
21170;SDS011;10743;52.160;20.910;2022-08-25T04:47:20;32.40;;;5.70;;
21170;SDS011;10743;52.160;20.910;2022-08-25T04:49:47;18.75;;;6.00;;
21170;SDS011;10743;52.160;20.910;2022-08-25T04:52:14;26.10;;;6.57;;
21170;SDS011;10743;52.160;20.910;2022-08-25T04:54:41;29.80;;;6.38;;
21170;SDS011;10743;52.160;20.910;2022-08-25T04:57:09;22.20;;;6.70;;
21170;SDS011;10743;52.160;20.910;2022-08-25T04:59:36;22.88;;;5.88;;
21170;SDS011;10743;52.160;20.910;2022-08-25T05:02:04;26.63;;;6.95;;
21170;SDS011;10743;52.160;20.910;2022-08-25T05:04:32;24.85;;;6.03;;
21170;SDS011;10743;52.160;20.910;2022-08-25T05:07:02;22.10;;;5.97;;
21170;SDS011;10743;52.160;20.910;2022-08-25T05:09:29;27.88;;;6.72;;
21170;SDS011;10743;52.160;20.910;2022-08-25T05:11:58;28.48;;;6.78;;
21170;SDS011;10743;52.160;20.910;2022-08-25T05:14:30;26.95;;;6.97;;
21170;SDS011;10743;52.160;20.910;2022-08-25T05:16:57;22.33;;;6.30;;
21170;SDS011;10743;52.160;20.910;2022-08-25T05:19:24;26.40;;;6.45;;
21170;SDS011;10743;52.160;20.910;2022-08-25T05:21:52;23.73;;;6.55;;
21170;SDS011;10743;52.160;20.910;2022-08-25T05:24:19;18.45;;;6.15;;
21170;SDS011;10743;52.160;20.910;2022-08-25T05:26:47;26.40;;;5.88;;
21170;SDS011;10743;52.160;20.910;2022-08-25T05:29:14;25.65;;;6.35;;
21170;SDS011;10743;52.160;20.910;2022-08-25T05:31:41;24.00;;;6.60;;
21170;SDS011;10743;52.160;20.910;2022-08-25T05:34:16;29.35;;;7.60;;
21170;SDS011;10743;52.160;20.910;2022-08-25T05:36:45;20.48;;;6.82;;
21170;SDS011;10743;52.160;20.910;2022-08-25T05:39:13;33.72;;;8.95;;
21170;SDS011;10743;52.160;20.910;2022-08-25T05:41:41;23.45;;;6.97;;
21170;SDS011;10743;52.160;20.910;2022-08-25T05:44:08;27.35;;;6.72;;
21170;SDS011;10743;52.160;20.910;2022-08-25T05:46:35;27.48;;;7.28;;
21170;SDS011;10743;52.160;20.910;2022-08-25T05:49:02;25.05;;;6.78;;
21170;SDS011;10743;52.160;20.910;2022-08-25T05:51:29;22.05;;;6.95;;
21170;SDS011;10743;52.160;20.910;2022-08-25T05:53:56;24.42;;;7.00;;
21170;SDS011;10743;52.160;20.910;2022-08-25T05:56:23;28.50;;;6.90;;
21170;SDS011;10743;52.160;20.910;2022-08-25T05:58:49;25.58;;;7.15;;
21170;SDS011;10743;52.160;20.910;2022-08-25T06:01:22;26.17;;;7.32;;
21170;SDS011;10743;52.160;20.910;2022-08-25T06:04:12;21.90;;;6.95;;
21170;SDS011;10743;52.160;20.910;2022-08-25T06:06:40;22.55;;;7.53;;
21170;SDS011;10743;52.160;20.910;2022-08-25T06:09:07;21.13;;;6.82;;
21170;SDS011;10743;52.160;20.910;2022-08-25T06:11:36;23.23;;;6.68;;
21170;SDS011;10743;52.160;20.910;2022-08-25T06:14:06;24.33;;;7.18;;
21170;SDS011;10743;52.160;20.910;2022-08-25T06:16:35;25.95;;;7.05;;
21170;SDS011;10743;52.160;20.910;2022-08-25T06:19:04;20.95;;;6.72;;
21170;SDS011;10743;52.160;20.910;2022-08-25T06:21:33;26.73;;;6.93;;
21170;SDS011;10743;52.160;20.910;2022-08-25T06:24:00;27.90;;;7.13;;
21170;SDS011;10743;52.160;20.910;2022-08-25T06:26:28;33.17;;;7.57;;
21170;SDS011;10743;52.160;20.910;2022-08-25T06:28:55;17.27;;;6.57;;
21170;SDS011;10743;52.160;20.910;2022-08-25T06:31:22;23.95;;;6.78;;
21170;SDS011;10743;52.160;20.910;2022-08-25T06:33:49;25.13;;;7.38;;
21170;SDS011;10743;52.160;20.910;2022-08-25T06:36:16;21.42;;;7.15;;
21170;SDS011;10743;52.160;20.910;2022-08-25T06:38:44;22.98;;;7.72;;
21170;SDS011;10743;52.160;20.910;2022-08-25T06:41:13;28.42;;;7.00;;
21170;SDS011;10743;52.160;20.910;2022-08-25T06:43:41;24.67;;;7.70;;
21170;SDS011;10743;52.160;20.910;2022-08-25T06:46:23;33.03;;;7.45;;
21170;SDS011;10743;52.160;20.910;2022-08-25T06:49:02;22.27;;;6.30;;
21170;SDS011;10743;52.160;20.910;2022-08-25T06:51:30;26.63;;;7.95;;
21170;SDS011;10743;52.160;20.910;2022-08-25T06:53:58;21.98;;;6.63;;
21170;SDS011;10743;52.160;20.910;2022-08-25T06:56:25;28.02;;;8.30;;
21170;SDS011;10743;52.160;20.910;2022-08-25T06:58:52;20.42;;;7.32;;
21170;SDS011;10743;52.160;20.910;2022-08-25T07:01:21;26.17;;;7.45;;
21170;SDS011;10743;52.160;20.910;2022-08-25T07:03:53;28.05;;;7.75;;
21170;SDS011;10743;52.160;20.910;2022-08-25T07:06:23;23.27;;;7.13;;
21170;SDS011;10743;52.160;20.910;2022-08-25T07:08:52;24.70;;;7.32;;
21170;SDS011;10743;52.160;20.910;2022-08-25T07:11:20;26.90;;;7.72;;
21170;SDS011;10743;52.160;20.910;2022-08-25T07:13:47;20.52;;;6.80;;
21170;SDS011;10743;52.160;20.910;2022-08-25T07:16:16;23.85;;;6.80;;
21170;SDS011;10743;52.160;20.910;2022-08-25T07:18:46;23.35;;;7.80;;
21170;SDS011;10743;52.160;20.910;2022-08-25T07:21:14;28.00;;;7.05;;
21170;SDS011;10743;52.160;20.910;2022-08-25T07:23:44;19.38;;;7.30;;
21170;SDS011;10743;52.160;20.910;2022-08-25T07:26:14;22.08;;;7.35;;
21170;SDS011;10743;52.160;20.910;2022-08-25T07:29:05;28.33;;;7.72;;
21170;SDS011;10743;52.160;20.910;2022-08-25T07:32:01;34.60;;;7.45;;
21170;SDS011;10743;52.160;20.910;2022-08-25T07:34:29;26.67;;;7.18;;
21170;SDS011;10743;52.160;20.910;2022-08-25T07:37:18;23.95;;;7.00;;
21170;SDS011;10743;52.160;20.910;2022-08-25T07:40:07;28.83;;;7.35;;
21170;SDS011;10743;52.160;20.910;2022-08-25T07:42:39;21.83;;;7.18;;
21170;SDS011;10743;52.160;20.910;2022-08-25T07:45:07;21.63;;;6.88;;
21170;SDS011;10743;52.160;20.910;2022-08-25T07:47:36;24.70;;;7.20;;
21170;SDS011;10743;52.160;20.910;2022-08-25T07:50:05;23.88;;;6.97;;
21170;SDS011;10743;52.160;20.910;2022-08-25T07:52:34;22.27;;;7.13;;
21170;SDS011;10743;52.160;20.910;2022-08-25T07:55:04;33.15;;;7.60;;
21170;SDS011;10743;52.160;20.910;2022-08-25T07:57:38;21.63;;;6.88;;
21170;SDS011;10743;52.160;20.910;2022-08-25T08:00:07;26.58;;;7.57;;
21170;SDS011;10743;52.160;20.910;2022-08-25T08:02:39;22.73;;;7.20;;
21170;SDS011;10743;52.160;20.910;2022-08-25T08:05:08;23.15;;;7.70;;
21170;SDS011;10743;52.160;20.910;2022-08-25T08:07:36;26.73;;;6.75;;
21170;SDS011;10743;52.160;20.910;2022-08-25T08:10:10;22.45;;;7.78;;
21170;SDS011;10743;52.160;20.910;2022-08-25T08:12:59;25.63;;;7.68;;
21170;SDS011;10743;52.160;20.910;2022-08-25T08:15:27;30.08;;;7.68;;
21170;SDS011;10743;52.160;20.910;2022-08-25T08:17:55;26.45;;;7.10;;
21170;SDS011;10743;52.160;20.910;2022-08-25T08:20:24;28.55;;;6.97;;
21170;SDS011;10743;52.160;20.910;2022-08-25T08:22:52;23.73;;;6.60;;
21170;SDS011;10743;52.160;20.910;2022-08-25T08:25:19;22.10;;;6.57;;
21170;SDS011;10743;52.160;20.910;2022-08-25T08:27:53;31.77;;;7.78;;
21170;SDS011;10743;52.160;20.910;2022-08-25T08:30:21;35.35;;;6.95;;
21170;SDS011;10743;52.160;20.910;2022-08-25T08:32:51;21.73;;;6.68;;
21170;SDS011;10743;52.160;20.910;2022-08-25T08:35:37;23.95;;;6.85;;
21170;SDS011;10743;52.160;20.910;2022-08-25T08:38:08;20.27;;;6.72;;
21170;SDS011;10743;52.160;20.910;2022-08-25T08:40:47;22.80;;;6.78;;
21170;SDS011;10743;52.160;20.910;2022-08-25T08:43:49;30.48;;;7.75;;
21170;SDS011;10743;52.160;20.910;2022-08-25T08:46:27;30.27;;;7.05;;
21170;SDS011;10743;52.160;20.910;2022-08-25T08:49:09;27.40;;;7.10;;
21170;SDS011;10743;52.160;20.910;2022-08-25T08:51:55;18.52;;;6.32;;
21170;SDS011;10743;52.160;20.910;2022-08-25T08:54:28;17.73;;;6.20;;
21170;SDS011;10743;52.160;20.910;2022-08-25T08:57:03;21.45;;;6.65;;
21170;SDS011;10743;52.160;20.910;2022-08-25T08:59:39;23.63;;;7.20;;
21170;SDS011;10743;52.160;20.910;2022-08-25T09:02:39;26.05;;;8.02;;
21170;SDS011;10743;52.160;20.910;2022-08-25T09:05:31;37.75;;;7.97;;
21170;SDS011;10743;52.160;20.910;2022-08-25T09:08:13;17.70;;;6.20;;
21170;SDS011;10743;52.160;20.910;2022-08-25T09:10:53;17.65;;;5.78;;
21170;SDS011;10743;52.160;20.910;2022-08-25T09:16:33;20.38;;;6.43;;
21170;SDS011;10743;52.160;20.910;2022-08-25T09:22:33;15.75;;;5.78;;
21170;SDS011;10743;52.160;20.910;2022-08-25T09:27:59;22.35;;;5.93;;
21170;SDS011;10743;52.160;20.910;2022-08-25T09:30:46;18.42;;;6.32;;
21170;SDS011;10743;52.160;20.910;2022-08-25T09:33:29;21.70;;;6.28;;
21170;SDS011;10743;52.160;20.910;2022-08-25T09:36:01;23.75;;;6.50;;
21170;SDS011;10743;52.160;20.910;2022-08-25T09:38:31;14.15;;;5.78;;
21170;SDS011;10743;52.160;20.910;2022-08-25T09:40:59;17.50;;;5.60;;
21170;SDS011;10743;52.160;20.910;2022-08-25T09:43:36;18.20;;;6.15;;
21170;SDS011;10743;52.160;20.910;2022-08-25T09:48:46;16.95;;;5.78;;
21170;SDS011;10743;52.160;20.910;2022-08-25T09:59:33;22.38;;;6.00;;
21170;SDS011;10743;52.160;20.910;2022-08-25T10:02:03;13.75;;;5.38;;
21170;SDS011;10743;52.160;20.910;2022-08-25T10:04:52;14.57;;;5.50;;
21170;SDS011;10743;52.160;20.910;2022-08-25T10:07:22;14.20;;;5.32;;
21170;SDS011;10743;52.160;20.910;2022-08-25T10:10:03;14.52;;;5.55;;
21170;SDS011;10743;52.160;20.910;2022-08-25T10:13:14;17.10;;;5.78;;
21170;SDS011;10743;52.160;20.910;2022-08-25T10:15:48;13.50;;;5.00;;
21170;SDS011;10743;52.160;20.910;2022-08-25T10:21:37;15.50;;;3.90;;
21170;SDS011;10743;52.160;20.910;2022-08-25T10:24:08;15.48;;;4.20;;
21170;SDS011;10743;52.160;20.910;2022-08-25T10:26:47;13.82;;;4.18;;
21170;SDS011;10743;52.160;20.910;2022-08-25T10:29:47;12.57;;;5.20;;
21170;SDS011;10743;52.160;20.910;2022-08-25T10:35:12;9.07;;;3.78;;
21170;SDS011;10743;52.160;20.910;2022-08-25T10:37:50;11.45;;;3.47;;
21170;SDS011;10743;52.160;20.910;2022-08-25T10:40:37;12.15;;;3.70;;
21170;SDS011;10743;52.160;20.910;2022-08-25T10:49:18;9.55;;;3.58;;
21170;SDS011;10743;52.160;20.910;2022-08-25T10:52:01;5.72;;;3.20;;
21170;SDS011;10743;52.160;20.910;2022-08-25T11:00:31;12.00;;;3.20;;
21170;SDS011;10743;52.160;20.910;2022-08-25T11:03:29;10.50;;;3.20;;
21170;SDS011;10743;52.160;20.910;2022-08-25T11:06:22;7.85;;;3.00;;
21170;SDS011;10743;52.160;20.910;2022-08-25T11:09:04;10.50;;;3.58;;
21170;SDS011;10743;52.160;20.910;2022-08-25T11:11:38;5.43;;;2.97;;
21170;SDS011;10743;52.160;20.910;2022-08-25T11:14:29;7.88;;;3.20;;
21170;SDS011;10743;52.160;20.910;2022-08-25T11:17:10;9.10;;;3.75;;
21170;SDS011;10743;52.160;20.910;2022-08-25T11:20:09;9.60;;;3.33;;
21170;SDS011;10743;52.160;20.910;2022-08-25T11:25:52;13.48;;;3.50;;
21170;SDS011;10743;52.160;20.910;2022-08-25T11:31:18;12.77;;;3.40;;
21170;SDS011;10743;52.160;20.910;2022-08-25T11:33:48;5.82;;;2.92;;
21170;SDS011;10743;52.160;20.910;2022-08-25T11:36:25;10.48;;;3.38;;
21170;SDS011;10743;52.160;20.910;2022-08-25T11:53:16;13.98;;;3.13;;
21170;SDS011;10743;52.160;20.910;2022-08-25T11:55:55;9.40;;;3.13;;
21170;SDS011;10743;52.160;20.910;2022-08-25T12:09:33;5.43;;;2.85;;
21170;SDS011;10743;52.160;20.910;2022-08-25T12:12:26;10.75;;;2.85;;
21170;SDS011;10743;52.160;20.910;2022-08-25T12:18:06;6.32;;;3.10;;
21170;SDS011;10743;52.160;20.910;2022-08-25T12:29:29;7.43;;;2.72;;
21170;SDS011;10743;52.160;20.910;2022-08-25T12:32:18;8.05;;;3.33;;
21170;SDS011;10743;52.160;20.910;2022-08-25T12:38:11;7.93;;;3.03;;
21170;SDS011;10743;52.160;20.910;2022-08-25T12:43:21;9.90;;;3.30;;
21170;SDS011;10743;52.160;20.910;2022-08-25T12:51:58;10.55;;;3.40;;
21170;SDS011;10743;52.160;20.910;2022-08-25T13:00:28;6.85;;;2.97;;
21170;SDS011;10743;52.160;20.910;2022-08-25T13:05:57;9.43;;;3.17;;
21170;SDS011;10743;52.160;20.910;2022-08-25T13:11:38;12.27;;;3.92;;
21170;SDS011;10743;52.160;20.910;2022-08-25T13:17:03;9.38;;;3.67;;
21170;SDS011;10743;52.160;20.910;2022-08-25T13:19:31;9.73;;;3.90;;
21170;SDS011;10743;52.160;20.910;2022-08-25T13:22:02;8.07;;;3.58;;
21170;SDS011;10743;52.160;20.910;2022-08-25T13:24:42;4.13;;;3.22;;
21170;SDS011;10743;52.160;20.910;2022-08-25T13:27:25;6.30;;;3.30;;
21170;SDS011;10743;52.160;20.910;2022-08-25T13:29:54;7.00;;;3.25;;
21170;SDS011;10743;52.160;20.910;2022-08-25T13:32:33;6.32;;;3.75;;
21170;SDS011;10743;52.160;20.910;2022-08-25T13:35:13;8.75;;;3.50;;
21170;SDS011;10743;52.160;20.910;2022-08-25T13:37:45;6.88;;;3.38;;
21170;SDS011;10743;52.160;20.910;2022-08-25T13:40:14;7.95;;;4.13;;
21170;SDS011;10743;52.160;20.910;2022-08-25T13:42:56;11.07;;;3.20;;
21170;SDS011;10743;52.160;20.910;2022-08-25T13:45:34;10.57;;;3.13;;
21170;SDS011;10743;52.160;20.910;2022-08-25T13:48:09;8.40;;;3.17;;
21170;SDS011;10743;52.160;20.910;2022-08-25T13:50:48;4.18;;;2.90;;
21170;SDS011;10743;52.160;20.910;2022-08-25T13:53:22;8.68;;;3.35;;
21170;SDS011;10743;52.160;20.910;2022-08-25T13:55:59;5.47;;;3.13;;
21170;SDS011;10743;52.160;20.910;2022-08-25T13:58:30;8.15;;;3.33;;
21170;SDS011;10743;52.160;20.910;2022-08-25T14:01:15;7.93;;;3.03;;
21170;SDS011;10743;52.160;20.910;2022-08-25T14:04:27;7.07;;;3.30;;
21170;SDS011;10743;52.160;20.910;2022-08-25T14:09:57;6.65;;;3.08;;
21170;SDS011;10743;52.160;20.910;2022-08-25T14:12:36;8.85;;;2.83;;
21170;SDS011;10743;52.160;20.910;2022-08-25T14:17:44;6.80;;;3.00;;
21170;SDS011;10743;52.160;20.910;2022-08-25T14:20:25;6.25;;;3.08;;
21170;SDS011;10743;52.160;20.910;2022-08-25T14:23:14;11.82;;;4.15;;
21170;SDS011;10743;52.160;20.910;2022-08-25T14:25:51;6.25;;;3.25;;
21170;SDS011;10743;52.160;20.910;2022-08-25T14:28:23;6.80;;;3.00;;
21170;SDS011;10743;52.160;20.910;2022-08-25T14:30:55;9.05;;;2.95;;
21170;SDS011;10743;52.160;20.910;2022-08-25T14:33:35;8.27;;;2.88;;
21170;SDS011;10743;52.160;20.910;2022-08-25T14:36:07;6.53;;;3.17;;
21170;SDS011;10743;52.160;20.910;2022-08-25T14:38:35;6.82;;;3.08;;
21170;SDS011;10743;52.160;20.910;2022-08-25T14:41:06;8.60;;;3.35;;
21170;SDS011;10743;52.160;20.910;2022-08-25T14:43:34;7.07;;;3.30;;
21170;SDS011;10743;52.160;20.910;2022-08-25T14:46:06;10.40;;;2.88;;
21170;SDS011;10743;52.160;20.910;2022-08-25T14:48:41;7.22;;;3.25;;
21170;SDS011;10743;52.160;20.910;2022-08-25T14:51:14;4.07;;;3.00;;
21170;SDS011;10743;52.160;20.910;2022-08-25T14:53:41;10.70;;;3.08;;
21170;SDS011;10743;52.160;20.910;2022-08-25T14:56:09;9.23;;;3.15;;
21170;SDS011;10743;52.160;20.910;2022-08-25T14:58:39;5.63;;;2.97;;
21170;SDS011;10743;52.160;20.910;2022-08-25T15:01:19;5.05;;;3.13;;
21170;SDS011;10743;52.160;20.910;2022-08-25T15:04:18;4.55;;;2.85;;
21170;SDS011;10743;52.160;20.910;2022-08-25T15:06:50;5.57;;;2.97;;
21170;SDS011;10743;52.160;20.910;2022-08-25T15:09:59;5.55;;;2.80;;
21170;SDS011;10743;52.160;20.910;2022-08-25T15:12:26;7.97;;;2.78;;
21170;SDS011;10743;52.160;20.910;2022-08-25T15:15:13;12.35;;;3.25;;
21170;SDS011;10743;52.160;20.910;2022-08-25T15:17:40;8.07;;;2.80;;
21170;SDS011;10743;52.160;20.910;2022-08-25T15:20:14;4.13;;;2.53;;
21170;SDS011;10743;52.160;20.910;2022-08-25T15:22:41;5.63;;;2.90;;
21170;SDS011;10743;52.160;20.910;2022-08-25T15:25:10;5.03;;;2.88;;
21170;SDS011;10743;52.160;20.910;2022-08-25T15:27:37;6.15;;;3.13;;
21170;SDS011;10743;52.160;20.910;2022-08-25T15:30:05;5.55;;;3.05;;
21170;SDS011;10743;52.160;20.910;2022-08-25T15:32:33;7.35;;;2.95;;
21170;SDS011;10743;52.160;20.910;2022-08-25T15:35:00;6.43;;;2.78;;
21170;SDS011;10743;52.160;20.910;2022-08-25T15:37:29;5.47;;;2.63;;
21170;SDS011;10743;52.160;20.910;2022-08-25T15:39:56;5.15;;;2.70;;
21170;SDS011;10743;52.160;20.910;2022-08-25T15:42:24;6.47;;;2.70;;
21170;SDS011;10743;52.160;20.910;2022-08-25T15:44:51;5.75;;;2.90;;
21170;SDS011;10743;52.160;20.910;2022-08-25T15:47:19;4.53;;;2.80;;
21170;SDS011;10743;52.160;20.910;2022-08-25T15:49:49;7.43;;;2.60;;
21170;SDS011;10743;52.160;20.910;2022-08-25T15:52:27;4.05;;;2.50;;
21170;SDS011;10743;52.160;20.910;2022-08-25T15:55:11;8.57;;;2.58;;
21170;SDS011;10743;52.160;20.910;2022-08-25T15:57:38;7.15;;;2.30;;
21170;SDS011;10743;52.160;20.910;2022-08-25T16:00:08;6.13;;;2.83;;
21170;SDS011;10743;52.160;20.910;2022-08-25T16:02:38;6.68;;;2.78;;
21170;SDS011;10743;52.160;20.910;2022-08-25T16:05:06;4.75;;;2.90;;
21170;SDS011;10743;52.160;20.910;2022-08-25T16:07:34;16.13;;;3.35;;
21170;SDS011;10743;52.160;20.910;2022-08-25T16:10:02;6.38;;;2.90;;
21170;SDS011;10743;52.160;20.910;2022-08-25T16:12:30;9.52;;;3.13;;
21170;SDS011;10743;52.160;20.910;2022-08-25T16:14:57;8.20;;;2.97;;
21170;SDS011;10743;52.160;20.910;2022-08-25T16:17:24;7.10;;;3.40;;
21170;SDS011;10743;52.160;20.910;2022-08-25T16:19:51;7.30;;;3.13;;
21170;SDS011;10743;52.160;20.910;2022-08-25T16:22:18;6.70;;;2.67;;
21170;SDS011;10743;52.160;20.910;2022-08-25T16:24:45;10.00;;;2.63;;
21170;SDS011;10743;52.160;20.910;2022-08-25T16:27:13;4.88;;;2.60;;
21170;SDS011;10743;52.160;20.910;2022-08-25T16:29:41;8.65;;;2.47;;
21170;SDS011;10743;52.160;20.910;2022-08-25T16:32:10;7.10;;;2.53;;
21170;SDS011;10743;52.160;20.910;2022-08-25T16:34:39;7.07;;;2.80;;
21170;SDS011;10743;52.160;20.910;2022-08-25T16:37:07;8.40;;;3.30;;
21170;SDS011;10743;52.160;20.910;2022-08-25T16:39:35;8.18;;;2.97;;
21170;SDS011;10743;52.160;20.910;2022-08-25T16:42:06;5.78;;;2.90;;
21170;SDS011;10743;52.160;20.910;2022-08-25T16:44:33;8.40;;;2.83;;
21170;SDS011;10743;52.160;20.910;2022-08-25T16:47:00;5.50;;;3.42;;
21170;SDS011;10743;52.160;20.910;2022-08-25T16:49:28;7.13;;;2.65;;
21170;SDS011;10743;52.160;20.910;2022-08-25T16:51:56;8.48;;;2.45;;
21170;SDS011;10743;52.160;20.910;2022-08-25T16:54:23;6.80;;;2.53;;